createdAt,value
2023-04-02T00:01:22.547Z,99082.13
2023-04-02T00:03:54.854Z,99090.25
2023-04-02T00:06:35.210Z,99087.13
2023-04-02T00:09:15.879Z,99087.59
2023-04-02T00:11:50.162Z,99101.34
2023-04-02T00:14:32.897Z,99095.94
2023-04-02T00:17:04.230Z,99094.88
2023-04-02T00:20:08.045Z,99109.38
2023-04-02T00:22:36.402Z,99109.50
2023-04-02T00:25:13.973Z,99117.09
2023-04-02T00:27:43.737Z,99122.66
2023-04-02T00:30:14.706Z,99124.59
2023-04-02T00:32:44.129Z,99125.78
2023-04-02T00:35:29.568Z,99129.81
2023-04-02T00:37:58.820Z,99136.63
2023-04-02T00:40:33.043Z,99141.44
2023-04-02T00:43:05.314Z,99144.16
2023-04-02T00:45:38.363Z,99147.41
2023-04-02T00:48:32.727Z,99152.19
2023-04-02T00:51:16.044Z,99152.63
2023-04-02T00:53:48.752Z,99154.56
2023-04-02T00:56:32.697Z,99158.06
2023-04-02T00:59:01.882Z,99157.41
2023-04-02T01:01:38.041Z,99162.91
2023-04-02T01:04:07.063Z,99162.81
2023-04-02T01:06:38.695Z,99166.28
2023-04-02T01:09:15.766Z,99173.88
2023-04-02T01:12:26.332Z,99174.00
2023-04-02T01:15:19.058Z,99171.28
2023-04-02T01:18:02.437Z,99178.34
2023-04-02T01:20:39.810Z,99175.38
2023-04-02T01:23:18.409Z,99181.13
2023-04-02T01:26:17.837Z,99185.13
2023-04-02T01:29:00.306Z,99187.81
2023-04-02T01:31:29.728Z,99189.03
2023-04-02T01:33:58.763Z,99200.94
2023-04-02T01:36:54.988Z,99198.78
2023-04-02T01:39:47.428Z,99198.09
2023-04-02T01:42:38.076Z,99195.38
2023-04-02T01:45:16.894Z,99200.34
2023-04-02T01:47:46.639Z,99196.06
2023-04-02T01:50:21.363Z,99203.84
2023-04-02T01:52:58.284Z,99204.69
2023-04-02T01:55:42.302Z,99204.75
2023-04-02T01:58:12.880Z,99208.19
2023-04-02T02:01:19.620Z,99208.84
2023-04-02T02:03:48.927Z,99207.97
2023-04-02T02:06:19.780Z,99211.19
2023-04-02T02:09:05.170Z,99214.63
2023-04-02T02:11:35.129Z,99199.41
2023-04-02T02:14:14.012Z,99204.91
2023-04-02T02:16:45.100Z,99201.91
2023-04-02T02:19:24.453Z,99203.09
2023-04-02T02:21:56.234Z,99198.25
2023-04-02T02:24:29.891Z,99205.06
2023-04-02T02:27:22.957Z,99209.47
2023-04-02T02:29:56.807Z,99206.53
2023-04-02T02:32:32.081Z,99200.91
2023-04-02T02:35:14.257Z,99200.38
2023-04-02T02:37:47.395Z,99199.66
2023-04-02T02:40:25.618Z,99196.13
2023-04-02T02:42:58.178Z,99201.25
2023-04-02T02:45:30.552Z,99194.34
2023-04-02T02:48:00.826Z,99199.09
2023-04-02T02:50:32.859Z,99195.53
2023-04-02T02:53:05.714Z,99196.66
2023-04-02T02:55:38.858Z,99190.28
2023-04-02T02:58:21.021Z,99193.13
2023-04-02T03:00:50.370Z,99188.81
2023-04-02T03:03:23.998Z,99187.13
2023-04-02T03:06:03.023Z,99177.69
2023-04-02T03:08:41.391Z,99166.94
2023-04-02T03:11:18.302Z,99174.72
2023-04-02T03:13:51.465Z,99165.47
2023-04-02T03:16:36.319Z,99164.72
2023-04-02T03:19:27.010Z,99162.63
2023-04-02T03:22:04.169Z,99159.81
2023-04-02T03:24:55.566Z,99164.72
2023-04-02T03:27:38.514Z,99166.03
2023-04-02T03:30:30.700Z,99163.78
2023-04-02T03:33:05.277Z,99169.28
2023-04-02T03:35:42.268Z,99159.25
2023-04-02T03:38:19.506Z,99162.63
2023-04-02T03:41:03.611Z,99158.25
2023-04-02T03:43:45.358Z,99152.38
2023-04-02T03:46:38.225Z,99144.44
2023-04-02T03:49:19.963Z,99147.06
2023-04-02T03:51:58.772Z,99149.69
2023-04-02T03:54:27.526Z,99132.47
2023-04-02T03:56:56.347Z,99130.00
2023-04-02T03:59:36.892Z,99130.75
2023-04-02T04:02:37.619Z,99128.44
2023-04-02T04:05:08.719Z,99120.63
2023-04-02T04:07:43.871Z,99115.69
2023-04-02T04:10:21.333Z,99118.47
2023-04-02T04:12:53.624Z,99112.03
2023-04-02T04:16:04.008Z,99114.81
2023-04-02T04:18:42.110Z,99096.56
2023-04-02T04:21:38.064Z,99100.53
2023-04-02T04:24:09.340Z,99101.78
2023-04-02T04:26:50.319Z,99096.44
2023-04-02T04:29:39.174Z,99092.66
2023-04-02T04:32:33.208Z,99084.06
2023-04-02T04:35:07.181Z,99086.47
2023-04-02T04:37:41.511Z,99084.00
2023-04-02T04:40:25.539Z,99072.38
2023-04-02T04:42:58.679Z,99065.72
2023-04-02T04:45:56.253Z,99062.06
2023-04-02T04:48:42.821Z,99060.31
2023-04-02T04:51:21.932Z,99050.75
2023-04-02T04:53:53.933Z,99041.22
2023-04-02T04:56:33.252Z,99034.72
2023-04-02T04:59:42.612Z,99029.13
2023-04-02T05:02:25.419Z,99021.25
2023-04-02T05:04:54.489Z,99013.03
2023-04-02T05:07:33.301Z,99015.06
2023-04-02T05:10:29.063Z,99003.41
2023-04-02T05:13:08.613Z,99003.75
2023-04-02T05:15:43.154Z,98990.59
2023-04-02T05:18:34.470Z,98981.78
2023-04-02T05:21:49.023Z,98977.16
2023-04-02T05:24:29.244Z,98965.19
2023-04-02T05:27:04.877Z,98962.69
2023-04-02T05:29:38.780Z,98949.53
2023-04-02T05:32:10.191Z,98946.41
2023-04-02T05:34:42.171Z,98933.97
2023-04-02T05:37:32.080Z,98932.19
2023-04-02T05:40:12.941Z,98924.59
2023-04-02T05:42:48.835Z,98919.19
2023-04-02T05:45:38.226Z,98904.53
2023-04-02T05:48:30.683Z,98894.03
2023-04-02T05:51:01.088Z,98892.09
2023-04-02T05:53:38.969Z,98878.00
2023-04-02T05:56:12.958Z,98876.19
2023-04-02T05:59:17.169Z,98861.84
2023-04-02T06:02:09.685Z,98853.63
2023-04-02T06:04:48.267Z,98852.44
2023-04-02T06:07:34.122Z,98845.53
2023-04-02T06:10:06.767Z,98837.88
2023-04-02T06:12:47.274Z,98832.34
2023-04-02T06:15:22.308Z,98824.06
2023-04-02T06:18:07.693Z,98814.03
2023-04-02T06:20:36.950Z,98809.84
2023-04-02T06:23:20.602Z,98804.28
2023-04-02T06:26:02.499Z,98795.13
2023-04-02T06:28:54.961Z,98788.06
2023-04-02T06:31:41.155Z,98782.53
2023-04-02T06:34:17.715Z,98775.66
2023-04-02T06:36:48.547Z,98766.03
2023-04-02T06:39:25.828Z,98761.22
2023-04-02T06:42:20.510Z,98751.31
2023-04-02T06:44:49.448Z,98749.50
2023-04-02T06:47:23.535Z,98741.09
2023-04-02T06:50:17.593Z,98742.13
2023-04-02T06:52:55.351Z,98726.38
2023-04-02T06:56:14.608Z,98717.69
2023-04-02T06:58:43.009Z,98707.03
2023-04-02T07:01:19.183Z,98697.88
2023-04-02T07:03:47.918Z,98696.38
2023-04-02T07:06:19.283Z,98689.31
2023-04-02T07:08:47.843Z,98687.41
2023-04-02T07:11:22.317Z,98675.53
2023-04-02T07:13:52.533Z,98670.75
2023-04-02T07:16:23.942Z,98668.16
2023-04-02T07:18:52.880Z,98662.75
2023-04-02T07:21:21.715Z,98652.22
2023-04-02T07:23:50.084Z,98654.13
2023-04-02T07:26:21.366Z,98654.59
2023-04-02T07:28:49.802Z,98645.03
2023-04-02T07:31:21.023Z,98635.72
2023-04-02T07:33:49.465Z,98637.28
2023-04-02T07:36:20.977Z,98631.56
2023-04-02T07:38:50.091Z,98628.91
2023-04-02T07:41:20.549Z,98617.69
2023-04-02T07:43:49.346Z,98615.00
2023-04-02T07:46:20.040Z,98600.63
2023-04-02T07:48:48.907Z,98591.19
2023-04-02T07:51:26.130Z,98592.94
2023-04-02T07:53:56.816Z,98594.00
2023-04-02T07:56:26.779Z,98586.47
2023-04-02T07:58:55.154Z,98585.88
2023-04-02T08:01:28.800Z,98590.34
2023-04-02T08:03:59.001Z,98591.09
2023-04-02T08:06:27.372Z,98581.94
2023-04-02T08:08:56.052Z,98580.44
2023-04-02T08:11:24.750Z,98573.25
2023-04-02T08:13:53.220Z,98580.44
2023-04-02T08:16:21.623Z,98579.97
2023-04-02T08:18:50.322Z,98558.69
2023-04-02T08:21:18.737Z,98562.88
2023-04-02T08:23:47.187Z,98564.25
2023-04-02T08:26:19.797Z,98555.56
2023-04-02T08:28:48.186Z,98557.50
2023-04-02T08:31:16.672Z,98550.31
2023-04-02T08:33:45.172Z,98544.47
2023-04-02T08:36:18.950Z,98542.09
2023-04-02T08:38:48.799Z,98545.56
2023-04-02T08:41:29.019Z,98556.66
2023-04-02T08:44:27.672Z,98547.22
2023-04-02T08:47:07.120Z,98544.72
2023-04-02T08:49:56.714Z,98544.91
2023-04-02T08:52:32.265Z,98548.34
2023-04-02T08:55:02.146Z,98551.84
2023-04-02T08:57:56.786Z,98549.03
2023-04-02T09:00:41.810Z,98543.78
2023-04-02T09:03:32.435Z,98552.81
2023-04-02T09:06:03.562Z,98559.06
2023-04-02T09:08:33.824Z,98559.84
2023-04-02T09:11:19.563Z,98552.97
2023-04-02T09:13:50.798Z,98560.88
2023-04-02T09:16:24.089Z,98559.69
2023-04-02T09:18:55.235Z,98551.31
2023-04-02T09:21:24.296Z,98553.97
2023-04-02T09:23:52.619Z,98559.50
2023-04-02T09:26:30.353Z,98553.81
2023-04-02T09:29:25.653Z,98551.72
2023-04-02T09:32:23.946Z,98553.22
2023-04-02T09:35:15.101Z,98542.03
2023-04-02T09:38:11.028Z,98548.00
2023-04-02T09:41:02.522Z,98551.31
2023-04-02T09:43:38.901Z,98558.19
2023-04-02T09:46:24.490Z,98555.66
2023-04-02T09:49:02.235Z,98560.28
2023-04-02T09:51:35.183Z,98548.47
2023-04-02T09:54:13.913Z,98547.13
2023-04-02T09:57:01.404Z,98544.25
2023-04-02T09:59:29.982Z,98554.91
2023-04-02T10:02:04.690Z,98554.00
2023-04-02T10:04:38.211Z,98551.47
2023-04-02T10:07:08.073Z,98554.16
2023-04-02T10:09:39.833Z,98547.72
2023-04-02T10:12:15.077Z,98549.06
2023-04-02T10:14:48.356Z,98555.34
2023-04-02T10:17:31.435Z,98556.53
2023-04-02T10:20:24.401Z,98547.09
2023-04-02T10:22:52.823Z,98558.34
2023-04-02T10:25:26.429Z,98556.25
2023-04-02T10:28:11.003Z,98556.69
2023-04-02T10:30:57.310Z,98555.50
2023-04-02T10:33:52.175Z,98559.97
2023-04-02T10:36:52.233Z,98572.81
2023-04-02T10:39:40.647Z,98575.19
2023-04-02T10:42:56.608Z,98572.94
2023-04-02T10:45:48.949Z,98579.31
2023-04-02T10:48:46.736Z,98580.22
2023-04-02T10:51:35.145Z,98580.47
2023-04-02T10:54:24.586Z,98594.81
2023-04-02T10:56:55.839Z,98599.09
2023-04-02T10:59:36.375Z,98602.81
2023-04-02T11:02:27.185Z,98600.84
2023-04-02T11:05:01.768Z,98603.75
2023-04-02T11:07:38.370Z,98601.03
2023-04-02T11:10:08.150Z,98602.03
2023-04-02T11:12:53.307Z,98604.22
2023-04-02T11:15:26.592Z,98601.47
2023-04-02T11:17:55.697Z,98598.00
2023-04-02T11:21:01.838Z,98601.69
2023-04-02T11:23:33.615Z,98607.63
2023-04-02T11:26:32.493Z,98614.13
2023-04-02T11:29:13.352Z,98608.53
2023-04-02T11:31:42.915Z,98617.88
2023-04-02T11:34:43.382Z,98608.13
2023-04-02T11:37:31.990Z,98614.59
2023-04-02T11:40:01.813Z,98613.38
2023-04-02T11:42:31.711Z,98614.94
2023-04-02T11:45:24.537Z,98613.69
2023-04-02T11:48:18.720Z,98616.59
2023-04-02T11:50:49.508Z,98623.06
2023-04-02T11:53:22.185Z,98616.13
2023-04-02T11:56:03.033Z,98624.72
2023-04-02T11:58:43.351Z,98629.09
2023-04-02T12:01:33.414Z,98649.16
2023-04-02T12:04:30.687Z,98653.31
2023-04-02T12:07:13.796Z,98658.25
2023-04-02T12:09:45.569Z,98664.66
2023-04-02T12:12:44.050Z,98671.84
2023-04-02T12:15:36.046Z,98675.81
2023-04-02T12:18:25.341Z,98674.91
2023-04-02T12:20:57.335Z,98690.22
2023-04-02T12:23:32.871Z,98692.13
2023-04-02T12:26:27.208Z,98694.63
2023-04-02T12:28:57.268Z,98692.91
2023-04-02T12:31:26.836Z,98703.31
2023-04-02T12:33:55.547Z,98709.19
2023-04-02T12:36:24.885Z,98710.34
2023-04-02T12:38:56.138Z,98714.91
2023-04-02T12:41:28.232Z,98715.88
2023-04-02T12:44:02.994Z,98713.25
2023-04-02T12:46:33.490Z,98720.63
2023-04-02T12:49:24.771Z,98732.91
2023-04-02T12:51:58.399Z,98735.97
2023-04-02T12:54:26.965Z,98731.25
2023-04-02T12:56:56.680Z,98743.56
2023-04-02T12:59:40.059Z,98747.31
2023-04-02T13:02:27.179Z,98752.63
2023-04-02T13:04:58.456Z,98759.78
2023-04-02T13:07:28.987Z,98762.81
2023-04-02T13:10:00.961Z,98767.19
2023-04-02T13:12:35.282Z,98772.25
2023-04-02T13:15:08.697Z,98773.78
2023-04-02T13:18:03.935Z,98778.13
2023-04-02T13:20:40.705Z,98781.16
2023-04-02T13:23:30.914Z,98783.97
2023-04-02T13:26:21.140Z,98789.25
2023-04-02T13:29:04.706Z,98795.63
2023-04-02T13:31:34.366Z,98795.66
2023-04-02T13:34:03.162Z,98799.41
2023-04-02T13:36:31.603Z,98808.81
2023-04-02T13:38:59.979Z,98809.75
2023-04-02T13:41:31.199Z,98815.59
2023-04-02T13:44:02.541Z,98818.03
2023-04-02T13:46:35.886Z,98828.38
2023-04-02T13:49:04.287Z,98830.81
2023-04-02T13:52:06.302Z,98839.84
2023-04-02T13:54:52.074Z,98843.22
2023-04-02T13:57:20.902Z,98847.19
2023-04-02T13:59:49.307Z,98848.50
2023-04-02T14:02:21.420Z,98860.91
2023-04-02T14:04:53.719Z,98858.09
2023-04-02T14:07:33.036Z,98855.25
2023-04-02T14:10:18.317Z,98856.59
2023-04-02T14:12:58.468Z,98868.63
2023-04-02T14:15:33.164Z,98865.81
2023-04-02T14:18:28.544Z,98872.78
2023-04-02T14:20:57.546Z,98867.88
2023-04-02T14:23:57.258Z,98875.03
2023-04-02T14:26:28.368Z,98870.72
2023-04-02T14:29:02.747Z,98871.25
2023-04-02T14:31:49.433Z,98878.19
2023-04-02T14:34:36.763Z,98881.59
2023-04-02T14:37:34.304Z,98880.63
2023-04-02T14:40:26.571Z,98890.44
2023-04-02T14:43:14.160Z,98889.47
2023-04-02T14:45:42.549Z,98888.53
2023-04-02T14:48:53.597Z,98890.41
2023-04-02T14:51:38.767Z,98901.50
2023-04-02T14:54:23.624Z,98898.25
2023-04-02T14:57:22.283Z,98895.03
2023-04-02T14:59:53.689Z,98889.75
2023-04-02T15:02:52.019Z,98888.59
2023-04-02T15:05:22.584Z,98892.34
2023-04-02T15:08:02.720Z,98901.19
2023-04-02T15:10:33.782Z,98900.00
2023-04-02T15:13:07.747Z,98903.19
2023-04-02T15:15:40.778Z,98903.34
2023-04-02T15:18:18.176Z,98898.81
2023-04-02T15:21:17.737Z,98895.56
2023-04-02T15:24:07.786Z,98897.41
2023-04-02T15:26:57.390Z,98902.09
2023-04-02T15:29:29.676Z,98902.47
2023-04-02T15:32:16.896Z,98903.00
2023-04-02T15:35:00.714Z,98894.88
2023-04-02T15:37:41.455Z,98893.91
2023-04-02T15:40:44.938Z,98895.59
2023-04-02T15:43:26.465Z,98890.84
2023-04-02T15:46:18.867Z,98879.16
2023-04-02T15:49:10.358Z,98884.41
2023-04-02T15:52:09.676Z,98881.91
2023-04-02T15:55:09.318Z,98880.00
2023-04-02T15:58:04.963Z,98874.69
2023-04-02T16:01:02.489Z,98887.84
2023-04-02T16:03:39.676Z,98886.13
2023-04-02T16:06:49.825Z,98884.41
2023-04-02T16:09:31.723Z,98879.63
2023-04-02T16:12:13.369Z,98884.31
2023-04-02T16:14:46.142Z,98884.88
2023-04-02T16:17:26.391Z,98890.28
2023-04-02T16:23:00.607Z,98890.81
2023-04-02T16:25:38.377Z,98891.38
2023-04-02T16:28:26.297Z,98890.06
2023-04-02T16:30:58.027Z,98889.13
2023-04-02T16:33:40.396Z,98883.47
2023-04-02T16:36:30.386Z,98873.50
2023-04-02T16:39:27.751Z,98881.19
2023-04-02T16:42:05.950Z,98874.81
2023-04-02T16:44:45.521Z,98871.78
2023-04-02T16:47:32.941Z,98862.91
2023-04-02T16:50:39.127Z,98858.38
2023-04-02T16:53:47.854Z,98865.88
2023-04-02T16:56:36.008Z,98862.09
2023-04-02T16:59:19.782Z,98865.47
2023-04-02T17:02:00.543Z,98856.81
2023-04-02T17:04:51.898Z,98858.88
2023-04-02T17:07:32.452Z,98860.16
2023-04-02T17:10:21.952Z,98862.97
2023-04-02T17:13:03.893Z,98859.38
2023-04-02T17:15:40.325Z,98857.88
2023-04-02T17:18:20.830Z,98857.66
2023-04-02T17:20:49.557Z,98849.00
2023-04-02T17:23:20.417Z,98841.66
2023-04-02T17:25:59.234Z,98838.09
2023-04-02T17:28:37.620Z,98837.88
2023-04-02T17:31:18.193Z,98834.09
2023-04-02T17:33:46.677Z,98834.84
2023-04-02T17:36:33.813Z,98832.59
2023-04-02T17:39:21.510Z,98833.13
2023-04-02T17:42:10.157Z,98835.94
2023-04-02T17:45:19.866Z,98833.69
2023-04-02T17:47:48.210Z,98834.22
2023-04-02T17:50:22.371Z,98839.66
2023-04-02T17:53:13.370Z,98843.53
2023-04-02T17:55:56.546Z,98841.78
2023-04-02T17:59:01.975Z,98828.06
2023-04-02T18:01:52.139Z,98827.09
2023-04-02T18:04:26.255Z,98825.56
2023-04-02T18:07:18.750Z,98836.63
2023-04-02T18:10:02.125Z,98827.97
2023-04-02T18:12:58.144Z,98828.31
2023-04-02T18:15:56.475Z,98839.38
2023-04-02T18:18:51.669Z,98838.63
2023-04-02T18:21:29.188Z,98838.41
2023-04-02T18:24:08.997Z,98844.81
2023-04-02T18:26:55.881Z,98835.59
2023-04-02T18:29:42.081Z,98827.91
2023-04-02T18:32:32.348Z,98833.53
2023-04-02T18:35:19.224Z,98830.72
2023-04-02T18:38:33.982Z,98834.28
2023-04-02T18:41:30.156Z,98826.59
2023-04-02T18:44:08.609Z,98833.00
2023-04-02T18:46:51.487Z,98824.53
2023-04-02T18:49:42.307Z,98826.06
2023-04-02T18:52:17.207Z,98824.00
2023-04-02T18:55:01.465Z,98821.94
2023-04-02T18:57:34.938Z,98819.13
2023-04-02T19:00:21.025Z,98809.38
2023-04-02T19:02:57.471Z,98803.72
2023-04-02T19:05:45.503Z,98803.72
2023-04-02T19:08:27.191Z,98795.28
2023-04-02T19:11:07.820Z,98797.34
2023-04-02T19:13:37.747Z,98798.66
2023-04-02T19:16:20.362Z,98803.53
2023-04-02T19:19:21.254Z,98798.97
2023-04-02T19:21:55.266Z,98806.47
2023-04-02T19:24:29.299Z,98799.13
2023-04-02T19:27:17.956Z,98804.50
2023-04-02T19:29:52.005Z,98802.25
2023-04-02T19:32:54.702Z,98802.03
2023-04-02T19:35:30.381Z,98802.78
2023-04-02T19:38:15.049Z,98804.09
2023-04-02T19:41:03.221Z,98800.53
2023-04-02T19:43:31.813Z,98796.19
2023-04-02T19:46:02.625Z,98792.41
2023-04-02T19:48:58.829Z,98790.16
2023-04-02T19:51:28.108Z,98785.81
2023-04-02T19:53:57.066Z,98784.09
2023-04-02T19:56:25.477Z,98774.91
2023-04-02T19:58:54.518Z,98783.88
2023-04-02T20:01:23.298Z,98782.16
2023-04-02T20:03:51.828Z,98784.00
2023-04-02T20:06:20.200Z,98788.69
2023-04-02T20:08:48.786Z,98783.59
2023-04-02T20:11:17.319Z,98771.34
2023-04-02T20:13:45.851Z,98781.84
2023-04-02T20:16:15.375Z,98772.44
2023-04-02T20:18:44.317Z,98776.00
2023-04-02T20:21:12.689Z,98774.50
2023-04-02T20:23:41.175Z,98769.38
2023-04-02T20:26:09.948Z,98767.88
2023-04-02T20:28:38.293Z,98766.34
2023-04-02T20:31:12.599Z,98759.97
2023-04-02T20:33:41.873Z,98770.25
2023-04-02T20:36:16.641Z,98769.50
2023-04-02T20:38:46.350Z,98775.91
2023-04-02T20:41:16.991Z,98773.06
2023-04-02T20:43:45.704Z,98772.31
2023-04-02T20:46:14.224Z,98780.75
2023-04-02T20:48:43.565Z,98772.88
2023-04-02T20:51:15.631Z,98774.94
2023-04-02T20:53:44.536Z,98775.47
2023-04-02T20:56:15.465Z,98774.50
2023-04-02T20:58:45.112Z,98772.25
2023-04-02T21:01:23.126Z,98779.16
2023-04-02T21:03:56.420Z,98778.19
2023-04-02T21:06:27.102Z,98782.84
2023-04-02T21:08:55.506Z,98783.91
2023-04-02T21:11:24.826Z,98790.63
2023-04-02T21:13:53.715Z,98791.16
2023-04-02T21:16:30.406Z,98802.22
2023-04-02T21:19:01.554Z,98815.31
2023-04-02T21:21:30.444Z,98824.50
2023-04-02T21:24:04.302Z,98814.56
2023-04-02T21:26:38.901Z,98817.16
2023-04-02T21:29:07.633Z,98818.44
2023-04-02T21:31:38.983Z,98816.94
2023-04-02T21:34:09.422Z,98819.75
2023-04-02T21:36:41.266Z,98812.41
2023-04-02T21:39:12.575Z,98812.19
2023-04-02T21:41:46.230Z,98819.66
2023-04-02T21:44:16.882Z,98817.91
2023-04-02T21:46:46.131Z,98821.03
2023-04-02T21:49:17.638Z,98822.88
2023-04-02T21:51:48.709Z,98829.78
2023-04-02T21:54:17.724Z,98827.31
2023-04-02T21:56:47.725Z,98829.34
2023-04-02T21:59:17.910Z,98826.88
2023-04-02T22:01:49.510Z,98833.00
2023-04-02T22:04:24.309Z,98830.72
2023-04-02T22:06:53.840Z,98833.31
2023-04-02T22:09:27.502Z,98834.41
2023-04-02T22:12:01.264Z,98832.13
2023-04-02T22:14:30.289Z,98843.69
2023-04-02T22:17:02.232Z,98845.50
2023-04-02T22:19:31.404Z,98851.66
2023-04-02T22:21:59.746Z,98859.88
2023-04-02T22:24:28.236Z,98851.97
2023-04-02T22:26:56.970Z,98858.91
2023-04-02T22:29:25.349Z,98863.53
2023-04-02T22:31:53.892Z,98866.13
2023-04-02T22:34:22.341Z,98871.00
2023-04-02T22:36:50.722Z,98874.13
2023-04-02T22:39:19.196Z,98868.28
2023-04-02T22:41:48.008Z,98874.22
2023-04-02T22:44:16.894Z,98896.47
2023-04-02T22:46:45.442Z,98900.38
2023-04-02T22:49:19.867Z,98911.13
2023-04-02T22:51:48.509Z,98915.22
2023-04-02T22:54:17.066Z,98907.34
2023-04-02T22:56:45.612Z,98910.69
2023-04-02T22:59:14.007Z,98910.69
2023-04-02T23:01:42.433Z,98922.47
2023-04-02T23:04:10.819Z,98924.50
2023-04-02T23:06:39.211Z,98929.91
2023-04-02T23:09:07.637Z,98938.31
2023-04-02T23:11:36.313Z,98939.09
2023-04-02T23:14:04.762Z,98931.94
2023-04-02T23:16:33.297Z,98936.81
2023-04-02T23:19:02.740Z,98949.34
2023-04-02T23:21:31.430Z,98952.16
2023-04-02T23:23:59.834Z,98959.06
2023-04-02T23:26:32.348Z,98965.44
2023-04-02T23:29:01.882Z,98966.72
2023-04-02T23:31:30.851Z,98969.00
2023-04-02T23:33:59.259Z,98978.97
2023-04-02T23:36:30.438Z,98981.22
2023-04-02T23:39:02.289Z,98975.09
2023-04-02T23:41:31.584Z,98983.72
2023-04-02T23:44:00.928Z,98981.16
2023-04-02T23:46:30.645Z,98994.91
2023-04-02T23:49:00.476Z,98995.16
2023-04-02T23:51:30.264Z,98993.31
2023-04-02T23:53:58.712Z,99000.47
2023-04-02T23:56:27.178Z,99011.94
2023-04-02T23:58:55.810Z,99013.66
